Time;durP1;ratioP1;P1;durP2;ratioP2;P2;SDS_P1;SDS_P2;PMS_P1;PMS_P2;Temp;Humidity;BMP_temperature;BMP_pressure;BME280_temperature;BME280_humidity;BME280_pressure;Samples;Min_cycle;Max_cycle;Signal;HPM_P1;HPM_P2
2022/04/27 00:00:24;;;;;;;12.40;9.30;;;;;;;11.61;74.51;101030.91;5080784;28;20706;-72
2022/04/27 00:02:59;;;;;;;12.37;9.27;;;;;;;11.65;74.50;101024.34;5084909;28;20204;-73
2022/04/27 00:05:27;;;;;;;11.43;8.67;;;;;;;11.70;74.18;101026.56;5085353;28;20662;-72
2022/04/27 00:07:55;;;;;;;11.40;8.70;;;;;;;11.73;73.33;101030.78;5086411;28;20291;-72
2022/04/27 00:10:24;;;;;;;12.63;8.87;;;;;;;11.72;73.27;101024.63;5086427;28;20499;-73
2022/04/27 00:12:52;;;;;;;12.43;8.13;;;;;;;11.73;73.39;101025.47;5088625;28;20591;-73
2022/04/27 00:15:21;;;;;;;11.00;8.33;;;;;;;11.70;73.76;101029.22;5085692;28;20216;-72
2022/04/27 00:17:49;;;;;;;13.23;10.17;;;;;;;11.70;73.44;101019.44;5087359;28;20209;-73
2022/04/27 00:20:18;;;;;;;11.60;9.20;;;;;;;11.69;73.63;101025.75;5083314;28;20584;-72
2022/04/27 00:22:45;;;;;;;12.07;8.57;;;;;;;11.69;73.42;101023.09;5085645;28;20300;-72
2022/04/27 00:25:13;;;;;;;12.23;9.20;;;;;;;11.71;72.97;101022.94;5085768;28;20210;-73
2022/04/27 00:27:42;;;;;;;14.13;9.23;;;;;;;11.73;72.54;101022.81;5084878;28;20253;-73
2022/04/27 00:30:11;;;;;;;11.90;9.70;;;;;;;11.73;72.82;101022.81;5082753;28;20241;-73
2022/04/27 00:32:39;;;;;;;12.00;9.03;;;;;;;11.68;73.28;101018.78;5085870;28;20217;-73
2022/04/27 00:35:08;;;;;;;13.87;10.10;;;;;;;11.62;73.35;101024.63;5085389;28;20220;-73
2022/04/27 00:37:36;;;;;;;12.13;9.03;;;;;;;11.59;73.24;101027.59;5083979;28;20263;-73
2022/04/27 00:40:04;;;;;;;13.10;9.67;;;;;;;11.56;73.45;101025.19;5082670;28;20840;-73
2022/04/27 00:42:32;;;;;;;12.93;9.53;;;;;;;11.56;73.37;101021.69;5083326;28;20218;-73
2022/04/27 00:45:03;;;;;;;12.60;9.77;;;;;;;11.56;73.37;101025.19;5085791;28;20215;-73
2022/04/27 00:47:31;;;;;;;13.30;9.37;;;;;;;11.57;73.31;101026.03;5081518;28;20657;-73
2022/04/27 00:49:59;;;;;;;11.47;8.73;;;;;;;11.57;72.94;101024.22;5085238;28;20648;-73
2022/04/27 00:52:27;;;;;;;13.53;9.63;;;;;;;11.55;72.88;101028.84;5079314;28;20674;-73
2022/04/27 00:54:55;;;;;;;12.93;9.67;;;;;;;11.56;72.46;101025.19;5084610;28;20235;-73
2022/04/27 00:57:23;;;;;;;11.87;8.87;;;;;;;11.57;71.87;101034.84;5085390;28;20214;-73
2022/04/27 00:59:52;;;;;;;12.03;9.50;;;;;;;11.55;72.33;101033.31;5085350;28;20369;-73
2022/04/27 01:02:21;;;;;;;13.63;9.73;;;;;;;11.53;72.66;101041.41;5082936;28;20483;-73
2022/04/27 01:04:49;;;;;;;13.20;9.47;;;;;;;11.53;72.79;101036.09;5079537;28;20205;-73
2022/04/27 01:07:17;;;;;;;12.07;9.70;;;;;;;11.55;72.65;101034.16;5083038;28;20213;-73
2022/04/27 01:09:45;;;;;;;15.03;9.90;;;;;;;11.55;72.58;101036.78;5082002;28;20829;-73
2022/04/27 01:12:13;;;;;;;13.20;9.93;;;;;;;11.50;73.53;101035.56;5084040;28;20304;-73
2022/04/27 01:14:41;;;;;;;13.37;10.50;;;;;;;11.42;74.41;101038.91;5086035;28;20608;-73
2022/04/27 01:17:09;;;;;;;16.73;10.73;;;;;;;11.35;75.08;101042.25;5080527;28;20639;-73
2022/04/27 01:19:48;;;;;;;15.90;11.73;;;;;;;11.29;75.38;101035.69;5083421;28;20218;-73
2022/04/27 01:22:18;;;;;;;14.93;11.53;;;;;;;11.31;75.33;101037.22;5081760;28;20247;-73
2022/04/27 01:24:46;;;;;;;16.93;12.23;;;;;;;11.36;75.38;101041.25;5084083;28;20310;-73
2022/04/27 01:27:13;;;;;;;17.63;10.97;;;;;;;11.40;75.18;101040.88;5084869;28;20342;-73
2022/04/27 01:29:41;;;;;;;16.23;12.50;;;;;;;11.46;75.07;101040.28;5080194;28;20296;-73
2022/04/27 01:32:10;;;;;;;15.97;12.60;;;;;;;11.49;74.32;101031.22;5075704;28;20846;-73
2022/04/27 01:34:37;;;;;;;17.27;12.67;;;;;;;11.52;74.74;101036.25;5083270;28;20223;-73
2022/04/27 01:40:08;;;;;;;18.43;13.53;;;;;;;11.51;74.04;101035.41;5079948;28;20207;-73
2022/04/27 01:42:50;;;;;;;19.47;13.97;;;;;;;11.45;73.94;101046.59;5078224;28;20228;-73
2022/04/27 01:45:18;;;;;;;17.77;12.90;;;;;;;11.32;74.79;101043.38;5082747;28;20200;-73
2022/04/27 01:47:53;;;;;;;19.33;14.40;;;;;;;11.19;75.54;101045.44;5078106;28;20398;-73
2022/04/27 01:50:21;;;;;;;20.40;14.63;;;;;;;11.02;76.45;101040.81;5082242;28;20309;-73
2022/04/27 01:55:35;;;;;;;23.53;16.17;;;;;;;10.75;78.34;101038.78;5047866;28;20726;-73
2022/04/27 01:58:03;;;;;;;22.00;15.50;;;;;;;10.75;78.52;101044.94;5079088;28;20310;-73
2022/04/27 02:00:31;;;;;;;21.23;15.43;;;;;;;10.81;78.23;101040.94;5082219;28;20208;-71
2022/04/27 02:02:59;;;;;;;20.70;15.30;;;;;;;10.92;77.43;101046.09;5082504;28;20236;-72
2022/04/27 02:05:27;;;;;;;28.13;16.70;;;;;;;11.00;77.06;101043.59;5082642;28;20235;-72
2022/04/27 02:07:56;;;;;;;23.17;16.07;;;;;;;11.06;76.66;101048.38;5083144;28;20544;-72
2022/04/27 02:10:29;;;;;;;22.33;16.37;;;;;;;11.09;76.85;101047.25;5079901;28;20547;-72
2022/04/27 02:12:56;;;;;;;20.73;15.20;;;;;;;11.16;76.31;101061.66;5080097;28;20385;-72
2022/04/27 02:15:24;;;;;;;22.30;16.27;;;;;;;11.17;75.79;101056.19;5081297;28;20343;-72
2022/04/27 02:17:52;;;;;;;24.17;16.43;;;;;;;11.18;75.96;101059.69;5079598;28;20204;-72
2022/04/27 02:20:22;;;;;;;23.83;16.63;;;;;;;11.20;75.62;101057.75;5084795;28;20208;-72
2022/04/27 02:22:50;;;;;;;23.40;16.53;;;;;;;11.24;75.32;101053.84;5082602;28;20890;-72
2022/04/27 02:25:19;;;;;;;24.60;16.47;;;;;;;11.23;74.49;101055.66;5080774;28;20631;-72
2022/04/27 02:27:49;;;;;;;22.20;16.67;;;;;;;11.16;74.91;101051.06;5079824;28;20290;-72
2022/04/27 02:30:18;;;;;;;23.40;16.90;;;;;;;11.12;75.47;101054.94;5083881;28;20212;-72
2022/04/27 02:32:46;;;;;;;23.30;17.00;;;;;;;11.13;75.38;101061.94;5081900;28;20206;-72
2022/04/27 02:35:15;;;;;;;23.03;15.97;;;;;;;11.15;75.56;101062.66;5078100;28;20232;-73
2022/04/27 02:37:43;;;;;;;22.77;17.30;;;;;;;11.15;75.01;101066.13;5082775;28;20209;-73
2022/04/27 02:40:11;;;;;;;22.87;16.37;;;;;;;11.12;74.73;101070.88;5079920;28;20203;-72
2022/04/27 02:42:40;;;;;;;21.90;16.07;;;;;;;11.01;74.90;101066.50;5086318;28;20212;-73
2022/04/27 02:45:08;;;;;;;22.47;15.87;;;;;;;10.90;75.40;101064.84;5085979;28;20714;-73
2022/04/27 02:47:36;;;;;;;23.13;15.80;;;;;;;10.82;75.56;101069.09;5085224;28;20236;-72
2022/04/27 02:52:49;;;;;;;22.67;16.07;;;;;;;10.54;76.48;101070.72;5082876;28;20801;-73
2022/04/27 02:55:17;;;;;;;23.60;16.10;;;;;;;10.52;76.63;101072.66;5082182;28;20231;-72
2022/04/27 02:57:46;;;;;;;25.63;16.93;;;;;;;10.53;77.03;101080.47;5088281;28;20564;-72
2022/04/27 03:00:14;;;;;;;25.40;17.47;;;;;;;10.55;76.91;101080.34;5083334;28;20214;-72
2022/04/27 03:02:42;;;;;;;23.40;16.07;;;;;;;10.55;76.61;101080.34;5081958;28;20210;-72
2022/04/27 03:05:09;;;;;;;23.23;16.30;;;;;;;10.53;76.82;101077.81;5083351;28;20207;-73
2022/04/27 03:07:37;;;;;;;22.97;16.47;;;;;;;10.61;76.71;101079.81;5086212;28;20213;-73
2022/04/27 03:10:06;;;;;;;25.20;16.93;;;;;;;10.67;76.55;101084.56;5086021;28;20203;-73
2022/04/27 03:12:35;;;;;;;26.77;17.73;;;;;;;10.73;75.99;101076.06;5084223;28;20293;-73
2022/04/27 03:15:06;;;;;;;24.07;16.90;;;;;;;10.75;75.78;101074.13;5081031;28;20354;-73
2022/04/27 03:17:33;;;;;;;24.20;16.63;;;;;;;10.75;75.62;101071.47;5083064;28;20203;-73
2022/04/27 03:20:02;;;;;;;19.57;15.00;;;;;;;10.76;74.93;101072.31;5083494;28;20320;-73
2022/04/27 03:22:29;;;;;;;23.43;16.43;;;;;;;10.78;74.66;101071.22;5087875;28;20350;-73
2022/04/27 03:24:57;;;;;;;24.63;17.37;;;;;;;10.78;74.67;101075.69;5084291;28;20687;-73
2022/04/27 03:27:25;;;;;;;24.70;18.27;;;;;;;10.75;74.75;101076.78;5086839;28;20211;-74
2022/04/27 03:29:53;;;;;;;22.23;16.37;;;;;;;10.73;74.44;101073.41;5078684;28;20229;-74
2022/04/27 03:32:22;;;;;;;24.60;16.80;;;;;;;10.70;74.58;101075.50;5085033;28;20254;-74
2022/04/27 03:34:50;;;;;;;24.33;17.40;;;;;;;10.72;74.20;101082.38;5079795;28;20281;-74
2022/04/27 03:37:18;;;;;;;22.27;15.83;;;;;;;10.72;74.10;101077.06;5084226;28;20211;-74
2022/04/27 03:39:45;;;;;;;23.30;15.80;;;;;;;10.70;73.97;101075.50;5083426;28;20250;-74
2022/04/27 03:42:13;;;;;;;25.70;16.70;;;;;;;10.66;73.93;101072.28;5085982;28;20232;-73
2022/04/27 03:44:42;;;;;;;25.50;16.20;;;;;;;10.63;73.95;101077.88;5080157;28;20228;-73
2022/04/27 03:47:10;;;;;;;23.33;17.00;;;;;;;10.62;74.13;101076.19;5084965;28;20204;-73
2022/04/27 03:49:39;;;;;;;24.67;17.17;;;;;;;10.65;73.86;101081.19;5085586;28;20670;-73
2022/04/27 03:52:07;;;;;;;27.90;17.20;;;;;;;10.60;74.01;101094.03;5084362;28;20207;-73
2022/04/27 03:54:35;;;;;;;27.13;18.43;;;;;;;10.59;74.05;101087.06;5084712;28;20235;-73
2022/04/27 03:57:04;;;;;;;24.93;17.30;;;;;;;10.58;74.13;101090.66;5083255;28;20294;-73
2022/04/27 03:59:31;;;;;;;27.23;18.80;;;;;;;10.58;74.27;101101.28;5084153;28;20208;-73
2022/04/27 04:01:59;;;;;;;25.50;17.43;;;;;;;10.58;74.39;101095.97;5085029;28;20648;-73
2022/04/27 04:04:27;;;;;;;24.80;17.03;;;;;;;10.55;74.01;101106.88;5088207;28;20258;-73
2022/04/27 04:06:56;;;;;;;24.90;16.40;;;;;;;10.57;74.13;101107.56;5081791;28;20261;-73
2022/04/27 04:09:24;;;;;;;21.63;15.27;;;;;;;10.57;74.09;101115.50;5087374;28;20243;-73
2022/04/27 04:11:52;;;;;;;23.87;17.60;;;;;;;10.56;74.14;101119.97;5088193;28;20196;-73
2022/04/27 04:14:19;;;;;;;24.63;17.17;;;;;;;10.58;73.94;101122.50;5083436;28;20385;-73
2022/04/27 04:16:47;;;;;;;26.87;17.53;;;;;;;10.56;74.08;101121.78;5085558;28;20226;-73
2022/04/27 04:19:15;;;;;;;27.03;17.67;;;;;;;10.57;74.03;101112.84;5081898;28;20204;-73
2022/04/27 04:21:43;;;;;;;26.27;16.93;;;;;;;10.55;74.39;101125.44;5081345;28;20577;-73
2022/04/27 04:24:13;;;;;;;24.87;17.57;;;;;;;10.56;74.11;101125.28;5082555;28;20211;-73
2022/04/27 04:29:31;;;;;;;25.23;17.63;;;;;;;10.50;74.24;101136.41;5056848;28;20210;-72
2022/04/27 04:31:59;;;;;;;26.20;17.23;;;;;;;10.48;74.52;101143.66;5083775;28;20303;-73
2022/04/27 04:34:27;;;;;;;24.73;17.33;;;;;;;10.49;74.23;101149.81;5081039;28;20212;-73
2022/04/27 04:36:55;;;;;;;25.83;17.47;;;;;;;10.49;74.23;101153.28;5083828;28;20652;-73
2022/04/27 04:39:24;;;;;;;25.13;17.33;;;;;;;10.51;74.23;101155.81;5080161;28;20298;-74
2022/04/27 04:41:51;;;;;;;23.10;16.97;;;;;;;10.52;73.99;101158.34;5080511;28;20205;-73
2022/04/27 04:44:19;;;;;;;23.27;16.43;;;;;;;10.52;74.16;101160.16;5082766;28;20211;-73
2022/04/27 04:46:47;;;;;;;23.77;16.77;;;;;;;10.56;73.97;101167.72;5081847;28;20207;-72
2022/04/27 04:49:15;;;;;;;25.77;17.73;;;;;;;10.55;74.19;101159.91;5077650;28;20214;-73
2022/04/27 04:51:42;;;;;;;25.40;17.83;;;;;;;10.55;74.10;101159.91;5083756;28;20204;-72
2022/04/27 04:54:10;;;;;;;26.70;17.97;;;;;;;10.56;74.21;101161.56;5084238;28;20224;-73
2022/04/27 04:56:39;;;;;;;27.53;17.90;;;;;;;10.57;74.27;101168.53;5079561;28;20317;-72
2022/04/27 04:59:07;;;;;;;28.43;18.23;;;;;;;10.57;74.05;101174.69;5083383;28;20296;-72
2022/04/27 05:01:34;;;;;;;26.73;18.67;;;;;;;10.60;74.03;101168.28;5083353;28;20208;-74
2022/04/27 05:04:02;;;;;;;25.67;18.10;;;;;;;10.60;73.99;101172.75;5083481;28;20300;-72
2022/04/27 05:06:33;;;;;;;26.27;18.00;;;;;;;10.62;74.13;101176.97;5082613;28;20200;-73
2022/04/27 05:09:01;;;;;;;28.73;18.43;;;;;;;10.64;73.95;101183.00;5082176;28;20619;-72
2022/04/27 05:11:29;;;;;;;31.10;20.20;;;;;;;10.66;74.22;101191.63;5085569;28;20311;-73
2022/04/27 05:13:58;;;;;;;27.90;18.93;;;;;;;10.71;74.35;101186.78;5081801;28;20382;-72
2022/04/27 05:16:26;;;;;;;25.57;18.47;;;;;;;10.75;74.37;101190.84;5084732;28;20326;-74
2022/04/27 05:18:54;;;;;;;28.70;19.10;;;;;;;10.74;74.38;101191.81;5081793;28;20759;-73
2022/04/27 05:21:22;;;;;;;24.80;17.57;;;;;;;10.74;74.31;101191.81;5084872;28;20620;-73
2022/04/27 05:23:49;;;;;;;28.50;19.60;;;;;;;10.71;74.89;101194.75;5081542;28;20199;-73
2022/04/27 05:26:17;;;;;;;29.67;19.77;;;;;;;10.74;75.05;101201.59;5085656;28;20212;-73
2022/04/27 05:34:17;;;;;;;28.03;19.00;;;;;;;10.86;75.02;101198.72;5083044;28;20295;-72
2022/04/27 05:36:45;;;;;;;29.33;19.37;;;;;;;10.94;75.01;101206.03;5083229;28;20312;-73
2022/04/27 05:39:12;;;;;;;27.70;18.00;;;;;;;11.03;74.90;101209.69;5082751;28;20550;-73
2022/04/27 05:41:41;;;;;;;26.57;18.17;;;;;;;11.09;74.31;101207.34;5080698;28;20211;-73
2022/04/27 05:44:09;;;;;;;30.77;19.30;;;;;;;11.13;74.56;101207.94;5082966;28;20212;-73
2022/04/27 05:46:39;;;;;;;28.30;19.37;;;;;;;11.19;74.29;101212.69;5083636;28;20205;-73
2022/04/27 05:49:07;;;;;;;32.80;19.73;;;;;;;11.23;74.40;101219.44;5085123;28;20217;-74
2022/04/27 05:51:36;;;;;;;30.77;19.90;;;;;;;11.25;74.99;101222.78;5085740;28;20201;-72
2022/04/27 05:54:04;;;;;;;29.03;19.17;;;;;;;11.27;75.36;101221.66;5084839;28;20341;-74
2022/04/27 05:56:31;;;;;;;31.90;23.77;;;;;;;11.58;74.85;101224.28;5081492;28;20864;-69
2022/04/27 05:59:00;;;;;;;27.67;19.93;;;;;;;11.49;74.67;101220.63;5079710;28;20241;-68
2022/04/27 06:01:27;;;;;;;27.87;20.27;;;;;;;11.43;75.28;101226.50;5080139;28;20249;-70
2022/04/27 06:03:57;;;;;;;27.73;20.37;;;;;;;11.46;75.15;101234.16;5086229;28;20653;-70
2022/04/27 06:06:24;;;;;;;28.73;20.27;;;;;;;11.52;74.92;101236.28;5082873;28;20217;-69
2022/04/27 06:08:53;;;;;;;26.67;19.23;;;;;;;11.55;75.12;101233.34;5080150;28;20858;-70
2022/04/27 06:11:22;;;;;;;27.17;20.00;;;;;;;11.58;75.38;101233.09;5082888;28;20209;-70
2022/04/27 06:13:50;;;;;;;28.50;19.77;;;;;;;11.65;75.05;101246.66;5083454;28;20248;-71
2022/04/27 06:16:18;;;;;;;28.47;20.00;;;;;;;11.64;75.14;101251.13;5080282;28;20317;-71
2022/04/27 06:18:46;;;;;;;28.13;20.13;;;;;;;11.68;75.01;101257.88;5082510;28;20218;-71
2022/04/27 06:21:15;;;;;;;26.67;20.10;;;;;;;11.74;74.50;101245.00;5091224;28;20669;-71
2022/04/27 06:23:43;;;;;;;31.10;20.30;;;;;;;11.80;74.70;101247.97;5090482;28;20306;-69
2022/04/27 06:26:10;;;;;;;29.03;20.50;;;;;;;11.82;74.81;101255.81;5082020;28;20718;-69
2022/04/27 06:28:38;;;;;;;26.00;19.97;;;;;;;11.85;74.92;101250.25;5089239;28;20216;-69
2022/04/27 06:31:06;;;;;;;31.03;21.53;;;;;;;11.93;75.00;101261.03;5088867;28;20304;-70
2022/04/27 06:33:34;;;;;;;28.20;20.23;;;;;;;11.99;74.43;101255.16;5090399;28;20352;-72
2022/04/27 06:36:02;;;;;;;30.23;20.17;;;;;;;12.03;74.08;101254.75;5087474;28;20229;-72
2022/04/27 06:38:31;;;;;;;29.10;20.43;;;;;;;12.02;74.47;101260.19;5085992;28;20295;-71
2022/04/27 06:41:12;;;;;;;29.23;20.90;;;;;;;12.05;73.84;101263.41;5081955;28;20602;-70
2022/04/27 06:43:40;;;;;;;26.47;19.37;;;;;;;12.07;73.92;101273.91;5089093;28;20199;-71
2022/04/27 06:46:08;;;;;;;26.83;18.97;;;;;;;12.14;73.56;101269.72;5084515;28;20309;-72
2022/04/27 06:48:35;;;;;;;28.43;20.27;;;;;;;12.18;73.47;101270.28;5088277;28;20236;-71
2022/04/27 06:51:04;;;;;;;29.03;20.37;;;;;;;12.26;73.09;101276.59;5084338;28;20195;-72
2022/04/27 06:53:33;;;;;;;27.73;19.53;;;;;;;12.32;72.77;101277.84;5085191;28;20211;-71
2022/04/27 06:56:04;;;;;;;26.80;20.17;;;;;;;12.32;73.28;101281.34;5088239;28;20419;-70
2022/04/27 06:58:32;;;;;;;25.10;19.20;;;;;;;12.34;72.53;101279.38;5085985;28;20217;-69
2022/04/27 07:00:59;;;;;;;32.37;19.77;;;;;;;12.41;72.73;101279.66;5078311;28;20804;-70
2022/04/27 07:03:28;;;;;;;29.20;20.93;;;;;;;12.37;72.39;101284.44;5082914;28;20211;-67
2022/04/27 07:05:55;;;;;;;31.23;20.47;;;;;;;12.47;72.22;101291.56;5083088;28;20207;-69
2022/04/27 07:08:23;;;;;;;27.63;19.67;;;;;;;12.55;72.15;101297.88;5086914;28;20250;-68
2022/04/27 07:10:52;;;;;;;27.97;20.20;;;;;;;12.63;72.37;101307.81;5088515;28;20435;-66
2022/04/27 07:13:20;;;;;;;27.17;19.27;;;;;;;12.62;72.15;101304.31;5086643;28;20226;-67
2022/04/27 07:15:51;;;;;;;26.20;19.93;;;;;;;12.64;71.69;101305.00;5084799;28;20209;-67
2022/04/27 07:18:19;;;;;;;27.23;20.27;;;;;;;12.72;71.82;101301.63;5086415;28;20266;-69
2022/04/27 07:20:47;;;;;;;28.40;18.93;;;;;;;12.75;72.03;101301.38;5086623;28;20593;-68
2022/04/27 07:23:14;;;;;;;28.30;19.57;;;;;;;12.81;71.96;101306.09;5083805;28;20295;-68
2022/04/27 07:25:42;;;;;;;29.67;19.63;;;;;;;12.88;70.97;101309.88;5086725;28;20216;-68
2022/04/27 07:28:11;;;;;;;25.03;19.67;;;;;;;12.95;70.52;101308.31;5079697;28;20699;-67
2022/04/27 07:30:39;;;;;;;27.37;19.93;;;;;;;13.00;70.55;101310.56;5086261;28;20218;-67
2022/04/27 07:33:07;;;;;;;28.73;19.90;;;;;;;13.06;69.69;101315.31;5082418;28;20214;-73
2022/04/27 07:35:36;;;;;;;26.67;19.73;;;;;;;13.08;69.48;101316.84;5086795;28;20246;-73
2022/04/27 07:38:04;;;;;;;26.20;19.67;;;;;;;13.15;69.74;101320.66;5085363;28;20630;-74
2022/04/27 07:40:32;;;;;;;26.43;19.50;;;;;;;13.17;70.20;101318.69;5083171;28;20302;-72
2022/04/27 07:43:00;;;;;;;26.77;19.67;;;;;;;13.24;69.31;101324.25;5084935;28;20212;-73
2022/04/27 07:45:29;;;;;;;23.83;18.27;;;;;;;13.29;69.67;101326.47;5087984;28;20564;-72
2022/04/27 07:47:57;;;;;;;26.60;20.67;;;;;;;13.34;69.47;101319.75;5086760;28;20225;-71
2022/04/27 07:50:25;;;;;;;24.67;19.13;;;;;;;13.40;68.76;101313.84;5083184;28;20320;-72
2022/04/27 07:52:52;;;;;;;26.97;19.30;;;;;;;13.48;68.73;101323.75;5085153;28;20210;-72
2022/04/27 07:55:20;;;;;;;28.07;19.47;;;;;;;13.52;69.02;101327.81;5081548;28;20241;-70
2022/04/27 07:57:48;;;;;;;26.50;19.80;;;;;;;13.58;68.71;101327.22;5085532;28;20366;-71
2022/04/27 08:00:16;;;;;;;23.87;19.40;;;;;;;13.69;68.77;101335.03;5082978;28;20637;-72
2022/04/27 08:02:47;;;;;;;26.37;19.40;;;;;;;13.75;68.35;101345.09;5080820;28;20216;-68
2022/04/27 08:05:15;;;;;;;24.57;17.87;;;;;;;13.85;68.54;101337.06;5084308;28;20651;-69
2022/04/27 08:07:46;;;;;;;24.87;18.83;;;;;;;13.91;67.71;101345.28;5081798;28;20197;-70
2022/04/27 08:10:15;;;;;;;26.60;18.47;;;;;;;14.01;68.56;101342.56;5082863;28;20203;-69
2022/04/27 08:12:46;;;;;;;22.63;17.20;;;;;;;14.08;66.79;101348.16;5082891;28;20206;-69
2022/04/27 08:15:15;;;;;;;27.57;17.70;;;;;;;14.15;66.77;101347.44;5080193;28;20202;-70
2022/04/27 08:17:55;;;;;;;23.90;18.40;;;;;;;14.21;66.82;101348.66;5076512;28;20626;-69
2022/04/27 08:23:11;;;;;;;24.47;18.67;;;;;;;14.32;66.47;101346.59;5093275;28;20479;-68
2022/04/27 08:25:44;;;;;;;26.00;19.50;;;;;;;14.39;67.63;101349.53;5082616;28;20210;-71
2022/04/27 08:28:12;;;;;;;25.90;19.20;;;;;;;14.40;66.83;101353.88;5078523;28;20210;-68
2022/04/27 08:30:43;;;;;;;25.13;20.00;;;;;;;14.56;65.71;101348.69;5078339;28;20214;-68
2022/04/27 08:33:13;;;;;;;25.47;19.73;;;;;;;14.67;65.89;101359.16;5079712;28;20283;-68
2022/04/27 08:35:41;;;;;;;24.50;19.07;;;;;;;14.74;64.75;101353.19;5085745;28;20576;-68
2022/04/27 08:38:10;;;;;;;24.83;19.20;;;;;;;14.82;64.36;101354.09;5086552;28;20229;-69
2022/04/27 08:40:40;;;;;;;27.77;18.60;;;;;;;14.90;64.11;101359.50;5088295;28;20656;-69
2022/04/27 08:43:09;;;;;;;24.20;16.90;;;;;;;14.96;63.34;101356.22;5082926;28;20203;-68
2022/04/27 08:45:41;;;;;;;22.80;17.80;;;;;;;15.04;63.38;101358.09;5080159;28;20211;-68
2022/04/27 08:48:10;;;;;;;22.43;18.13;;;;;;;15.12;63.34;101358.19;5077942;28;21010;-66
2022/04/27 08:50:39;;;;;;;21.07;17.37;;;;;;;15.20;62.64;101360.91;5080378;28;20340;-67
2022/04/27 08:53:07;;;;;;;23.57;19.23;;;;;;;15.23;62.68;101360.59;5084653;28;20619;-68
2022/04/27 08:55:37;;;;;;;24.23;18.03;;;;;;;15.30;62.19;101358.94;5081625;28;20247;-68
2022/04/27 08:58:10;;;;;;;25.37;17.83;;;;;;;15.32;62.43;101361.47;5077188;28;21395;-67
2022/04/27 09:00:59;;;;;;;24.03;17.93;;;;;;;15.44;62.76;101357.53;5079155;28;20269;-70
2022/04/27 09:03:29;;;;;;;24.93;18.43;;;;;;;15.55;62.59;101360.00;5080087;28;20310;-67
2022/04/27 09:06:03;;;;;;;24.73;18.23;;;;;;;15.68;61.99;101356.88;5082965;28;20207;-67
2022/04/27 09:08:39;;;;;;;25.57;18.27;;;;;;;15.75;61.70;101352.56;5079449;28;20591;-68
2022/04/27 09:11:15;;;;;;;23.07;19.00;;;;;;;15.78;62.67;101353.06;5079950;28;20875;-71
2022/04/27 09:13:48;;;;;;;25.10;17.43;;;;;;;15.86;62.11;101349.59;5075750;28;20214;-71
2022/04/27 09:16:18;;;;;;;24.17;19.10;;;;;;;15.98;61.50;101358.19;5078374;28;20234;-71
2022/04/27 09:24:27;;;;;;;22.00;18.00;;;;;;;16.28;60.97;101356.75;5134277;27;20542;-71
2022/04/27 09:27:03;;;;;;;23.07;17.57;;;;;;;16.33;60.21;101363.31;5100857;28;20229;-70
2022/04/27 09:29:32;;;;;;;21.47;17.50;;;;;;;16.34;60.55;101372.16;5100926;28;20213;-69
2022/04/27 09:32:01;;;;;;;21.80;17.93;;;;;;;16.43;60.02;101368.50;5107299;28;20207;-70
2022/04/27 09:34:29;;;;;;;20.47;17.13;;;;;;;16.56;59.57;101377.72;5098891;28;20245;-70
2022/04/27 09:37:00;;;;;;;22.33;17.80;;;;;;;16.59;59.48;101368.53;5100314;28;21038;-70
2022/04/27 09:39:30;;;;;;;23.67;18.10;;;;;;;16.68;59.13;101370.25;5099742;28;20342;-71
2022/04/27 09:42:05;;;;;;;22.17;17.87;;;;;;;16.80;57.97;101374.25;5101458;28;21451;-71
2022/04/27 09:44:34;;;;;;;23.27;18.00;;;;;;;16.89;58.82;101367.91;5098774;28;20782;-71
2022/04/27 09:47:03;;;;;;;20.47;17.33;;;;;;;17.00;58.99;101369.41;5099589;28;20285;-70
2022/04/27 09:49:32;;;;;;;22.93;18.87;;;;;;;17.09;58.80;101373.75;5102469;28;20212;-70
2022/04/27 09:52:01;;;;;;;21.77;18.27;;;;;;;17.19;58.81;101384.31;5104067;28;20198;-70
2022/04/27 09:54:32;;;;;;;24.23;17.43;;;;;;;17.32;58.50;101381.97;5102581;28;20226;-70
2022/04/27 09:57:01;;;;;;;23.10;18.07;;;;;;;17.40;57.92;101387.31;5099472;28;20249;-71
2022/04/27 09:59:30;;;;;;;18.67;15.60;;;;;;;17.53;57.10;101376.88;5098824;28;20340;-72
2022/04/27 10:02:01;;;;;;;19.97;16.20;;;;;;;17.56;56.45;101384.59;5094359;28;20233;-72
2022/04/27 10:04:30;;;;;;;24.73;18.37;;;;;;;17.67;55.81;101378.91;5097278;28;20234;-72
2022/04/27 10:07:00;;;;;;;24.90;18.83;;;;;;;17.77;55.77;101375.16;5096363;28;20253;-72
2022/04/27 10:09:28;;;;;;;21.97;16.70;;;;;;;17.81;55.46;101371.13;5097590;28;20467;-72
2022/04/27 10:12:13;;;;;;;20.00;16.27;;;;;;;17.89;55.13;101371.94;5096480;28;20227;-72
2022/04/27 10:14:40;;;;;;;22.30;16.83;;;;;;;17.84;54.80;101360.06;5097243;28;20714;-71
2022/04/27 10:17:09;;;;;;;20.07;16.70;;;;;;;17.88;54.76;101372.94;5097328;28;20213;-71
2022/04/27 10:19:36;;;;;;;23.67;17.20;;;;;;;18.04;54.04;101370.19;5099301;28;20209;-70
2022/04/27 10:22:25;;;;;;;18.87;14.27;;;;;;;17.99;53.08;101361.00;5094225;28;20672;-71
2022/04/27 10:24:55;;;;;;;21.70;17.17;;;;;;;18.05;54.72;101360.28;5101414;28;20304;-71
2022/04/27 10:27:25;;;;;;;21.53;17.27;;;;;;;18.16;54.09;101349.16;5096653;28;20232;-71
2022/04/27 10:29:58;;;;;;;21.03;16.53;;;;;;;18.29;53.60;101340.53;5097140;28;20222;-72
2022/04/27 10:32:37;;;;;;;20.13;17.07;;;;;;;18.41;53.41;101350.69;5101046;28;20217;-71
2022/04/27 10:35:17;;;;;;;22.87;15.50;;;;;;;18.54;53.06;101346.59;5089846;28;20246;-70
2022/04/27 10:37:47;;;;;;;18.00;15.17;;;;;;;18.62;52.69;101344.69;5082396;28;20260;-70
2022/04/27 10:40:32;;;;;;;19.73;16.50;;;;;;;18.78;51.59;101344.56;5083806;28;20195;-69
2022/04/27 10:43:04;;;;;;;22.20;16.43;;;;;;;18.84;51.90;101350.22;5090457;28;20228;-71
2022/04/27 10:45:33;;;;;;;19.97;15.90;;;;;;;18.92;51.73;101339.41;5085591;28;20771;-70
2022/04/27 10:48:03;;;;;;;25.33;17.10;;;;;;;19.09;50.67;101339.06;5089677;28;20203;-70
2022/04/27 10:50:33;;;;;;;21.87;16.53;;;;;;;19.18;50.58;101337.97;5083446;28;20290;-69
2022/04/27 10:53:23;;;;;;;20.97;16.63;;;;;;;19.34;50.85;101336.16;5082456;28;20285;-69
2022/04/27 10:56:03;;;;;;;26.67;18.03;;;;;;;19.42;50.88;101338.75;5082684;28;20750;-71
2022/04/27 10:58:42;;;;;;;19.83;16.80;;;;;;;19.42;50.69;101336.06;5085606;28;20297;-71
2022/04/27 11:01:24;;;;;;;19.53;16.60;;;;;;;19.55;49.83;101333.59;5084374;28;20203;-71
2022/04/27 11:04:00;;;;;;;22.10;17.60;;;;;;;19.69;49.48;101327.38;5083303;28;20670;-70
2022/04/27 11:06:30;;;;;;;18.00;14.67;;;;;;;19.79;49.49;101327.91;5085125;28;20220;-70
2022/04/27 11:09:13;;;;;;;22.60;16.13;;;;;;;19.98;49.17;101328.34;5083907;28;20342;-70
2022/04/27 11:11:51;;;;;;;20.67;16.23;;;;;;;20.20;49.08;101330.06;5089518;28;20559;-70
2022/04/27 11:14:22;;;;;;;20.93;15.23;;;;;;;20.34;48.60;101328.34;5083016;28;20248;-70
2022/04/27 11:16:51;;;;;;;22.13;15.93;;;;;;;20.50;47.83;101328.94;5083212;28;20210;-69
2022/04/27 11:19:18;;;;;;;18.30;14.30;;;;;;;20.77;46.20;101323.81;5085885;28;20238;-69
2022/04/27 11:21:47;;;;;;;20.00;14.40;;;;;;;21.05;45.61;101327.38;5082217;28;20355;-69
2022/04/27 11:24:16;;;;;;;16.57;14.00;;;;;;;21.28;45.31;101327.16;5080045;28;20826;-69
2022/04/27 11:26:46;;;;;;;16.87;14.00;;;;;;;21.50;44.87;101331.44;5084613;28;20294;-71
2022/04/27 11:29:16;;;;;;;17.13;14.50;;;;;;;21.83;44.45;101315.41;5082191;28;20273;-70
2022/04/27 11:31:45;;;;;;;18.17;14.43;;;;;;;22.27;43.09;101314.13;5086610;28;20234;-69
2022/04/27 11:34:24;;;;;;;17.98;12.90;;;;;;;23.01;41.01;101319.44;5083043;28;20211;-70
2022/04/27 11:36:52;;;;;;;16.95;12.75;;;;;;;23.56;39.55;101313.53;5086643;28;20701;-69
2022/04/27 11:39:21;;;;;;;16.23;13.88;;;;;;;23.41;39.76;101310.19;5080372;28;20210;-69
2022/04/27 11:41:58;;;;;;;18.73;14.57;;;;;;;23.05;39.73;101304.44;5083594;28;20203;-70
2022/04/27 11:44:26;;;;;;;15.50;12.43;;;;;;;22.68;40.47;101314.84;5081345;28;20526;-71